sensor_id;sensor_type;location;lat;lon;timestamp;temperature;humidity
76750;DHT22;66447;35.844;14.468;2023-02-01T00:02:34;12.37;68.22
76750;DHT22;66447;35.844;14.468;2023-02-01T00:17:36;12.45;67.48
76750;DHT22;66447;35.844;14.468;2023-02-01T00:32:37;12.16;68.75
76750;DHT22;66447;35.844;14.468;2023-02-01T00:47:37;12.41;67.33
76750;DHT22;66447;35.844;14.468;2023-02-01T01:02:38;12.33;66.93
76750;DHT22;66447;35.844;14.468;2023-02-01T01:17:39;12.35;68.77
76750;DHT22;66447;35.844;14.468;2023-02-01T01:32:39;11.90;68.67
76750;DHT22;66447;35.844;14.468;2023-02-01T01:47:44;12.19;66.75
76750;DHT22;66447;35.844;14.468;2023-02-01T02:02:48;12.04;66.58
76750;DHT22;66447;35.844;14.468;2023-02-01T02:18:05;11.62;68.84
76750;DHT22;66447;35.844;14.468;2023-02-01T02:49:20;11.76;68.71
76750;DHT22;66447;35.844;14.468;2023-02-01T03:04:23;11.38;70.69
76750;DHT22;66447;35.844;14.468;2023-02-01T03:19:33;11.36;70.97
76750;DHT22;66447;35.844;14.468;2023-02-01T03:34:35;10.98;73.38
76750;DHT22;66447;35.844;14.468;2023-02-01T03:49:43;11.13;73.61
76750;DHT22;66447;35.844;14.468;2023-02-01T04:04:44;11.00;73.63
76750;DHT22;66447;35.844;14.468;2023-02-01T04:19:45;10.70;74.04
76750;DHT22;66447;35.844;14.468;2023-02-01T04:34:46;10.88;71.38
76750;DHT22;66447;35.844;14.468;2023-02-01T04:49:46;10.66;72.06
76750;DHT22;66447;35.844;14.468;2023-02-01T05:04:47;10.85;69.71
76750;DHT22;66447;35.844;14.468;2023-02-01T05:19:48;10.49;70.26
76750;DHT22;66447;35.844;14.468;2023-02-01T05:34:49;10.74;68.63
76750;DHT22;66447;35.844;14.468;2023-02-01T05:49:50;10.66;68.52
76750;DHT22;66447;35.844;14.468;2023-02-01T06:04:50;10.77;67.62
76750;DHT22;66447;35.844;14.468;2023-02-01T06:19:51;11.25;66.30
76750;DHT22;66447;35.844;14.468;2023-02-01T06:34:52;11.04;67.28
76750;DHT22;66447;35.844;14.468;2023-02-01T06:49:52;11.46;66.69
76750;DHT22;66447;35.844;14.468;2023-02-01T07:04:53;11.32;69.08
76750;DHT22;66447;35.844;14.468;2023-02-01T07:19:54;12.28;66.60
76750;DHT22;66447;35.844;14.468;2023-02-01T07:34:54;12.88;65.77
76750;DHT22;66447;35.844;14.468;2023-02-01T07:49:55;13.76;62.59
76750;DHT22;66447;35.844;14.468;2023-02-01T08:04:56;17.11;51.98
76750;DHT22;66447;35.844;14.468;2023-02-01T08:19:56;18.52;43.91
76750;DHT22;66447;35.844;14.468;2023-02-01T08:34:59;20.28;35.69
76750;DHT22;66447;35.844;14.468;2023-02-01T08:50:00;20.35;34.96
76750;DHT22;66447;35.844;14.468;2023-02-01T09:05:00;19.72;36.11
76750;DHT22;66447;35.844;14.468;2023-02-01T09:20:01;20.46;33.31
76750;DHT22;66447;35.844;14.468;2023-02-01T09:35:02;20.13;33.05
76750;DHT22;66447;35.844;14.468;2023-02-01T09:50:08;20.55;33.21
76750;DHT22;66447;35.844;14.468;2023-02-01T10:05:20;20.77;31.03
76750;DHT22;66447;35.844;14.468;2023-02-01T10:20:30;22.06;30.10
76750;DHT22;66447;35.844;14.468;2023-02-01T10:35:40;21.51;30.78
76750;DHT22;66447;35.844;14.468;2023-02-01T10:51:05;20.88;34.03
76750;DHT22;66447;35.844;14.468;2023-02-01T11:06:22;20.22;36.35
76750;DHT22;66447;35.844;14.468;2023-02-01T11:21:25;18.37;41.58
76750;DHT22;66447;35.844;14.468;2023-02-01T11:36:28;18.00;42.32
76750;DHT22;66447;35.844;14.468;2023-02-01T11:51:36;18.47;40.53
76750;DHT22;66447;35.844;14.468;2023-02-01T12:06:54;18.03;41.63
76750;DHT22;66447;35.844;14.468;2023-02-01T12:22:29;18.91;39.79
76750;DHT22;66447;35.844;14.468;2023-02-01T12:37:43;18.81;39.33
76750;DHT22;66447;35.844;14.468;2023-02-01T12:52:58;17.98;43.22
76750;DHT22;66447;35.844;14.468;2023-02-01T13:08:06;17.97;42.90
76750;DHT22;66447;35.844;14.468;2023-02-01T13:23:22;18.68;41.07
76750;DHT22;66447;35.844;14.468;2023-02-01T13:53:52;18.11;42.03
76750;DHT22;66447;35.844;14.468;2023-02-01T14:24:35;17.60;44.03
76750;DHT22;66447;35.844;14.468;2023-02-01T14:39:58;17.80;45.78
76750;DHT22;66447;35.844;14.468;2023-02-01T14:55:03;16.72;48.04
76750;DHT22;66447;35.844;14.468;2023-02-01T15:10:06;17.02;46.04
76750;DHT22;66447;35.844;14.468;2023-02-01T15:25:28;16.76;46.70
76750;DHT22;66447;35.844;14.468;2023-02-01T15:40:29;16.59;47.95
76750;DHT22;66447;35.844;14.468;2023-02-01T15:55:37;15.95;50.48
76750;DHT22;66447;35.844;14.468;2023-02-01T16:10:43;15.48;53.06
76750;DHT22;66447;35.844;14.468;2023-02-01T16:25:46;14.42;57.57
76750;DHT22;66447;35.844;14.468;2023-02-01T16:40:48;13.97;60.83
76750;DHT22;66447;35.844;14.468;2023-02-01T16:55:49;13.90;59.46
76750;DHT22;66447;35.844;14.468;2023-02-01T17:10:49;13.54;59.65
76750;DHT22;66447;35.844;14.468;2023-02-01T17:25:50;13.46;59.70
76750;DHT22;66447;35.844;14.468;2023-02-01T17:40:51;13.14;60.40
76750;DHT22;66447;35.844;14.468;2023-02-01T17:55:52;13.27;59.20
76750;DHT22;66447;35.844;14.468;2023-02-01T18:10:58;13.12;59.84
76750;DHT22;66447;35.844;14.468;2023-02-01T18:25:59;12.96;62.54
76750;DHT22;66447;35.844;14.468;2023-02-01T18:41:00;12.88;63.53
76750;DHT22;66447;35.844;14.468;2023-02-01T18:56:04;12.86;62.28
76750;DHT22;66447;35.844;14.468;2023-02-01T19:11:06;12.41;65.01
76750;DHT22;66447;35.844;14.468;2023-02-01T19:26:10;12.37;65.39
76750;DHT22;66447;35.844;14.468;2023-02-01T19:41:11;12.23;65.85
76750;DHT22;66447;35.844;14.468;2023-02-01T19:56:12;12.18;66.44
76750;DHT22;66447;35.844;14.468;2023-02-01T20:11:12;12.41;65.96
76750;DHT22;66447;35.844;14.468;2023-02-01T20:26:14;12.65;65.58
76750;DHT22;66447;35.844;14.468;2023-02-01T20:41:14;12.43;67.53
76750;DHT22;66447;35.844;14.468;2023-02-01T20:56:21;12.42;68.07
76750;DHT22;66447;35.844;14.468;2023-02-01T21:11:25;12.63;68.10
76750;DHT22;66447;35.844;14.468;2023-02-01T21:26:26;12.38;70.85
76750;DHT22;66447;35.844;14.468;2023-02-01T21:41:27;12.49;71.73
76750;DHT22;66447;35.844;14.468;2023-02-01T21:56:47;12.49;71.47
76750;DHT22;66447;35.844;14.468;2023-02-01T22:11:49;12.38;71.38
76750;DHT22;66447;35.844;14.468;2023-02-01T22:26:49;12.67;70.53
76750;DHT22;66447;35.844;14.468;2023-02-01T22:41:50;12.66;69.88
76750;DHT22;66447;35.844;14.468;2023-02-01T22:56:51;12.35;71.79
76750;DHT22;66447;35.844;14.468;2023-02-01T23:11:52;12.60;71.67
76750;DHT22;66447;35.844;14.468;2023-02-01T23:26:53;12.63;73.09
76750;DHT22;66447;35.844;14.468;2023-02-01T23:41:54;12.81;73.29
76750;DHT22;66447;35.844;14.468;2023-02-01T23:56:54;13.03;73.28
